Babaevo, Russia
Current Conditions -  °F | °C
As of 5:30 AM on Saturday 25 Oct 2014 (Local Time) from ULWC Reporting Station
Clear Clear  
Wind Chill: -14°   Ceiling: Unl
Heat Index: -14°   Visibility: 6mi
Dew Point: -17°   Wind: 0mph
Humidity: 79%   Direction: NA
Pressure: 30.65"   Gusts: NA
Location:  59.4°N, 35.93°E
Report Text: ULWC 250230Z 00000MPS CAVOK M14/M17 Q1038 NOSIG RMKQFE768/1024
Loading
Personal Weather Stations






























Interactive Weather Map
Tropical Storm Tracking
New forecast layout! Learn more

10-Day Weather Forecast

Advertisements
Track Severe Weather on mobile